createdAt,value
2023-02-11T00:01:43.920Z,67.90
2023-02-11T00:04:10.928Z,68.16
2023-02-11T00:06:37.865Z,68.40
2023-02-11T00:09:05.739Z,68.74
2023-02-11T00:11:32.719Z,69.15
2023-02-11T00:14:02.470Z,68.71
2023-02-11T00:16:32.074Z,68.41
2023-02-11T00:19:06.096Z,70.03
2023-02-11T00:21:33.557Z,68.70
2023-02-11T00:24:02.525Z,68.45
2023-02-11T00:26:32.841Z,69.05
2023-02-11T00:29:01.045Z,68.92
2023-02-11T00:31:29.471Z,68.85
2023-02-11T00:33:56.424Z,69.27
2023-02-11T00:36:26.573Z,69.40
2023-02-11T00:38:54.942Z,69.26
2023-02-11T00:41:22.944Z,69.56
2023-02-11T00:43:51.031Z,69.47
2023-02-11T00:46:18.037Z,68.55
2023-02-11T00:48:44.936Z,67.89
2023-02-11T00:51:12.038Z,68.28
2023-02-11T00:53:39.086Z,68.89
2023-02-11T00:56:06.485Z,68.17
2023-02-11T00:58:33.487Z,69.18
2023-02-11T01:01:00.479Z,69.07
2023-02-11T01:03:27.727Z,67.92
2023-02-11T01:05:55.085Z,68.73
2023-02-11T01:08:22.516Z,69.13
2023-02-11T01:11:01.655Z,68.44
2023-02-11T01:13:33.017Z,69.66
2023-02-11T01:16:00.450Z,68.09
2023-02-11T01:18:27.748Z,67.97
2023-02-11T01:20:55.543Z,67.72
2023-02-11T01:23:22.619Z,68.84
2023-02-11T01:25:50.428Z,68.66
2023-02-11T01:28:23.521Z,69.82
2023-02-11T01:30:50.968Z,68.25
2023-02-11T01:33:18.472Z,70.74
2023-02-11T01:35:45.648Z,68.81
2023-02-11T01:38:25.200Z,69.71
2023-02-11T01:40:55.953Z,68.59
2023-02-11T01:43:25.045Z,68.42
2023-02-11T01:45:54.686Z,68.09
2023-02-11T01:48:36.778Z,68.84
2023-02-11T01:51:44.152Z,68.79
2023-02-11T01:54:32.905Z,68.78
2023-02-11T01:57:20.953Z,68.52
2023-02-11T02:03:08.490Z,68.71
2023-02-11T02:05:54.778Z,69.36
2023-02-11T02:08:29.587Z,68.27
2023-02-11T02:10:58.632Z,68.77
2023-02-11T02:13:25.927Z,68.61
2023-02-11T02:15:55.233Z,68.73
2023-02-11T02:18:40.276Z,68.78
2023-02-11T02:21:28.287Z,69.32
2023-02-11T02:24:19.664Z,68.45
2023-02-11T02:27:20.509Z,68.42
2023-02-11T02:30:11.557Z,69.75
2023-02-11T02:33:16.716Z,70.48
2023-02-11T02:36:00.173Z,69.78
2023-02-11T02:38:48.852Z,70.24
2023-02-11T02:41:28.106Z,69.43
2023-02-11T02:43:55.327Z,69.01
2023-02-11T02:46:30.958Z,69.28
2023-02-11T02:48:58.897Z,69.47
2023-02-11T02:51:47.854Z,69.59
2023-02-11T02:54:37.074Z,70.77
2023-02-11T02:57:22.077Z,68.64
2023-02-11T03:00:19.683Z,69.61
2023-02-11T03:03:10.992Z,68.52
2023-02-11T03:06:04.542Z,68.85
2023-02-11T03:08:58.486Z,70.20
2023-02-11T03:11:26.299Z,69.74
2023-02-11T03:13:55.119Z,69.86
2023-02-11T03:16:26.555Z,69.34
2023-02-11T03:19:02.400Z,68.54
2023-02-11T03:21:32.665Z,69.55
2023-02-11T03:24:20.873Z,69.64
2023-02-11T03:26:53.189Z,69.32
2023-02-11T03:29:42.749Z,68.42
2023-02-11T03:32:25.670Z,68.22
2023-02-11T03:35:05.780Z,69.17
2023-02-11T03:37:37.924Z,68.89
2023-02-11T03:40:10.552Z,68.65
2023-02-11T03:42:52.394Z,68.12
2023-02-11T03:45:22.357Z,68.49
2023-02-11T03:47:57.020Z,69.20
2023-02-11T03:50:28.182Z,68.78
2023-02-11T03:53:01.096Z,69.03
2023-02-11T03:55:31.024Z,69.28
2023-02-11T03:57:57.836Z,69.75
2023-02-11T04:00:50.888Z,68.87
2023-02-11T04:03:17.810Z,69.20
2023-02-11T04:05:44.698Z,68.78
2023-02-11T04:08:11.716Z,69.36
2023-02-11T04:10:38.499Z,68.12
2023-02-11T04:13:05.280Z,69.21
2023-02-11T04:15:32.539Z,69.50
2023-02-11T04:17:59.370Z,69.02
2023-02-11T04:20:26.253Z,69.89
2023-02-11T04:22:53.177Z,69.67
2023-02-11T04:25:20.146Z,70.46
2023-02-11T04:27:46.956Z,71.26
2023-02-11T04:30:14.337Z,70.81
2023-02-11T04:32:41.165Z,70.74
2023-02-11T04:35:08.442Z,70.56
2023-02-11T04:37:35.887Z,71.57
2023-02-11T04:40:03.407Z,71.20
2023-02-11T04:42:30.254Z,71.77
2023-02-11T04:44:57.262Z,72.03
2023-02-11T04:47:24.179Z,70.42
2023-02-11T04:49:50.979Z,70.68
2023-02-11T04:52:17.825Z,70.14
2023-02-11T04:54:45.679Z,69.94
2023-02-11T04:57:12.472Z,70.44
2023-02-11T04:59:39.448Z,70.14
2023-02-11T05:02:06.849Z,69.33
2023-02-11T05:04:33.722Z,69.81
2023-02-11T05:07:00.585Z,69.78
2023-02-11T05:09:27.464Z,69.13
2023-02-11T05:11:54.308Z,68.15
2023-02-11T05:14:21.212Z,68.69
2023-02-11T05:16:48.181Z,68.92
2023-02-11T05:19:15.044Z,69.15
2023-02-11T05:21:53.197Z,69.40
2023-02-11T05:24:27.331Z,69.77
2023-02-11T05:26:54.129Z,69.31
2023-02-11T05:29:20.901Z,68.32
2023-02-11T05:31:47.690Z,67.70
2023-02-11T05:34:14.809Z,67.72
2023-02-11T05:36:41.610Z,67.76
2023-02-11T05:39:08.739Z,67.69
2023-02-11T05:41:39.660Z,68.05
2023-02-11T05:44:06.800Z,68.18
2023-02-11T05:46:33.764Z,68.17
2023-02-11T05:49:00.695Z,69.80
2023-02-11T05:51:27.802Z,69.56
2023-02-11T05:54:13.010Z,69.73
2023-02-11T05:56:39.793Z,70.03
2023-02-11T05:59:06.637Z,70.39
2023-02-11T06:01:33.600Z,66.67
2023-02-11T06:04:00.568Z,65.02
2023-02-11T06:06:27.488Z,63.80
2023-02-11T06:08:54.321Z,63.64
2023-02-11T06:11:21.193Z,62.47
2023-02-11T06:13:48.020Z,60.77
2023-02-11T06:16:14.960Z,59.18
2023-02-11T06:18:41.796Z,58.29
2023-02-11T06:21:10.602Z,56.26
2023-02-11T06:23:37.779Z,55.11
2023-02-11T06:26:06.494Z,54.51
2023-02-11T06:28:33.852Z,54.00
2023-02-11T06:31:06.921Z,53.26
2023-02-11T06:33:34.622Z,52.44
2023-02-11T06:36:02.103Z,48.14
2023-02-11T06:38:28.934Z,49.27
2023-02-11T06:40:55.742Z,47.94
2023-02-11T06:43:22.793Z,48.78
2023-02-11T06:45:54.629Z,48.77
2023-02-11T06:48:22.369Z,46.17
2023-02-11T06:50:49.222Z,46.54
2023-02-11T06:53:16.041Z,45.45
2023-02-11T06:55:42.892Z,45.08
2023-02-11T06:58:09.663Z,44.59
2023-02-11T07:00:37.435Z,42.55
2023-02-11T07:03:04.319Z,41.53
2023-02-11T07:05:31.168Z,40.77
2023-02-11T07:07:58.011Z,39.45
2023-02-11T07:10:24.786Z,38.43
2023-02-11T07:12:51.664Z,38.32
2023-02-11T07:15:18.698Z,38.33
2023-02-11T07:17:48.162Z,37.54
2023-02-11T07:20:15.182Z,37.90
2023-02-11T07:22:42.034Z,35.85
2023-02-11T07:25:08.852Z,35.93
2023-02-11T07:27:35.692Z,36.83
2023-02-11T07:30:04.346Z,37.22
2023-02-11T07:32:32.950Z,37.06
2023-02-11T07:34:59.834Z,38.23
2023-02-11T07:37:26.662Z,36.92
2023-02-11T07:39:53.480Z,35.05
2023-02-11T07:42:20.285Z,36.13
2023-02-11T07:44:50.229Z,37.15
2023-02-11T07:47:17.383Z,36.47
2023-02-11T07:49:44.232Z,36.88
2023-02-11T07:52:11.099Z,37.47
2023-02-11T07:54:37.935Z,37.27
2023-02-11T07:57:05.277Z,36.83
2023-02-11T07:59:32.176Z,36.83
2023-02-11T08:01:59.434Z,37.16
2023-02-11T08:04:26.297Z,36.47
2023-02-11T08:06:56.467Z,35.81
2023-02-11T08:09:24.940Z,35.14
2023-02-11T08:11:51.734Z,35.44
2023-02-11T08:14:18.581Z,34.54
2023-02-11T08:16:45.589Z,35.76
2023-02-11T08:19:16.067Z,36.17
2023-02-11T08:21:43.435Z,36.63
2023-02-11T08:24:10.658Z,35.31
2023-02-11T08:26:38.747Z,35.38
2023-02-11T08:29:12.025Z,35.62
2023-02-11T08:31:41.699Z,37.07
2023-02-11T08:34:10.185Z,35.94
2023-02-11T08:36:38.374Z,36.24
2023-02-11T08:39:19.161Z,34.62
2023-02-11T08:41:52.065Z,34.98
2023-02-11T08:44:20.561Z,34.42
2023-02-11T08:46:48.408Z,35.17
2023-02-11T08:49:16.017Z,35.35
2023-02-11T08:51:43.672Z,34.07
2023-02-11T08:54:10.674Z,34.93
2023-02-11T08:56:38.704Z,34.57
2023-02-11T08:59:06.272Z,35.29
2023-02-11T09:01:34.023Z,32.87
2023-02-11T09:04:01.281Z,34.64
2023-02-11T09:06:29.293Z,32.69
2023-02-11T09:08:57.654Z,33.70
2023-02-11T09:11:33.213Z,33.83
2023-02-11T09:14:01.076Z,33.63
2023-02-11T09:16:30.425Z,34.56
2023-02-11T09:18:59.184Z,33.33
2023-02-11T09:21:26.695Z,34.55
2023-02-11T09:23:53.919Z,34.30
2023-02-11T09:26:23.506Z,35.15
2023-02-11T09:28:51.969Z,33.85
2023-02-11T09:31:22.255Z,33.54
2023-02-11T09:33:53.067Z,32.40
2023-02-11T09:36:22.521Z,33.24
2023-02-11T09:38:49.936Z,33.29
2023-02-11T09:41:26.228Z,32.00
2023-02-11T09:44:03.140Z,32.70
2023-02-11T09:46:35.205Z,33.69
2023-02-11T09:49:03.400Z,32.94
2023-02-11T09:51:51.507Z,32.28
2023-02-11T09:54:34.371Z,32.20
2023-02-11T09:57:01.370Z,33.51
2023-02-11T09:59:28.417Z,34.27
2023-02-11T10:02:20.596Z,33.73
2023-02-11T10:05:32.736Z,33.59
2023-02-11T10:08:36.006Z,34.63
2023-02-11T10:11:22.644Z,34.99
2023-02-11T10:14:22.097Z,35.41
2023-02-11T10:16:54.749Z,33.93
2023-02-11T10:19:36.838Z,35.07
2023-02-11T10:22:18.376Z,34.04
2023-02-11T10:24:53.084Z,33.44
2023-02-11T10:27:25.063Z,35.52
2023-02-11T10:30:02.839Z,34.69
2023-02-11T10:32:52.370Z,33.57
2023-02-11T10:35:22.155Z,34.50
2023-02-11T10:38:09.017Z,34.59
2023-02-11T10:40:35.870Z,33.03
2023-02-11T10:43:06.651Z,33.61
2023-02-11T10:45:39.381Z,34.68
2023-02-11T10:48:45.046Z,33.50
2023-02-11T10:51:24.078Z,33.31
2023-02-11T10:54:14.535Z,33.69
2023-02-11T10:56:46.593Z,35.67
2023-02-11T10:59:27.351Z,33.98
2023-02-11T11:02:16.934Z,34.36
2023-02-11T11:04:45.291Z,33.41
2023-02-11T11:07:12.065Z,34.84
2023-02-11T11:10:06.548Z,34.43
2023-02-11T11:12:41.020Z,35.03
2023-02-11T11:15:11.483Z,34.95
2023-02-11T11:17:38.690Z,34.61
2023-02-11T11:20:20.654Z,35.90
2023-02-11T11:22:49.524Z,35.15
2023-02-11T11:25:24.260Z,34.76
2023-02-11T11:27:53.132Z,34.89
2023-02-11T11:30:20.632Z,35.05
2023-02-11T11:32:47.789Z,35.83
2023-02-11T11:35:29.867Z,33.67
2023-02-11T11:38:02.720Z,34.74
2023-02-11T11:40:32.406Z,35.64
2023-02-11T11:43:14.396Z,34.61
2023-02-11T11:46:02.987Z,34.26
2023-02-11T11:48:41.023Z,34.80
2023-02-11T11:51:11.886Z,33.85
2023-02-11T11:54:03.242Z,34.69
2023-02-11T11:56:52.920Z,37.84
2023-02-11T11:59:20.381Z,35.13
2023-02-11T12:01:55.753Z,34.67
2023-02-11T12:04:40.754Z,36.53
2023-02-11T12:07:16.751Z,35.22
2023-02-11T12:09:43.550Z,34.96
2023-02-11T12:12:34.980Z,35.50
2023-02-11T12:15:22.796Z,35.73
2023-02-11T12:18:10.897Z,35.13
2023-02-11T12:21:34.750Z,35.92
2023-02-11T12:24:45.550Z,35.94
2023-02-11T12:27:36.106Z,34.83
2023-02-11T12:30:28.909Z,38.21
2023-02-11T12:33:13.769Z,39.72
2023-02-11T12:35:52.474Z,37.04
2023-02-11T12:38:29.756Z,36.40
2023-02-11T12:41:05.107Z,36.31
2023-02-11T12:43:38.360Z,35.63
2023-02-11T12:46:12.212Z,37.19
2023-02-11T12:48:57.456Z,37.21
2023-02-11T12:51:52.238Z,36.59
2023-02-11T12:54:49.020Z,36.86
2023-02-11T12:57:31.213Z,37.53
2023-02-11T13:00:17.187Z,37.17
2023-02-11T13:02:55.266Z,37.10
2023-02-11T13:05:33.945Z,37.37
2023-02-11T13:08:25.739Z,37.47
2023-02-11T13:10:59.505Z,37.25
2023-02-11T13:13:33.454Z,36.96
2023-02-11T13:16:07.630Z,36.53
2023-02-11T13:19:15.765Z,36.95
2023-02-11T13:21:57.543Z,37.91
2023-02-11T13:24:46.186Z,38.38
2023-02-11T13:28:14.279Z,38.71
2023-02-11T13:30:47.314Z,37.56
2023-02-11T13:33:19.700Z,37.01
2023-02-11T13:36:06.433Z,38.44
2023-02-11T13:38:33.902Z,38.26
2023-02-11T13:41:14.793Z,38.62
2023-02-11T13:43:42.140Z,37.78
2023-02-11T13:46:12.751Z,38.00
2023-02-11T13:48:47.725Z,38.85
2023-02-11T13:51:18.196Z,38.37
2023-02-11T13:53:57.827Z,38.47
2023-02-11T13:56:36.774Z,39.24
2023-02-11T13:59:30.784Z,39.72
2023-02-11T14:02:19.392Z,39.64
2023-02-11T14:05:24.349Z,39.35
2023-02-11T14:08:30.060Z,39.25
2023-02-11T14:11:15.249Z,40.00
2023-02-11T14:13:48.165Z,39.58
2023-02-11T14:16:20.487Z,41.37
2023-02-11T14:18:49.763Z,39.63
2023-02-11T14:21:30.482Z,40.50
2023-02-11T14:24:20.887Z,39.51
2023-02-11T14:26:57.115Z,39.68
2023-02-11T14:29:44.118Z,40.54
2023-02-11T14:32:25.937Z,40.86
2023-02-11T14:34:58.687Z,40.84
2023-02-11T14:37:50.835Z,40.60
2023-02-11T14:40:39.252Z,41.23
2023-02-11T14:43:33.633Z,40.75
2023-02-11T14:46:03.271Z,40.79
2023-02-11T14:48:38.716Z,41.21
2023-02-11T14:51:10.831Z,40.91
2023-02-11T14:53:44.190Z,41.23
2023-02-11T14:56:24.769Z,40.57
2023-02-11T14:58:54.293Z,40.23
2023-02-11T15:01:37.347Z,40.53
2023-02-11T15:04:06.306Z,41.15
2023-02-11T15:06:39.385Z,40.17
2023-02-11T15:09:28.218Z,40.04
2023-02-11T15:11:57.456Z,40.29
2023-02-11T15:14:28.122Z,39.54
2023-02-11T15:16:59.126Z,40.16
2023-02-11T15:19:36.686Z,40.45
2023-02-11T15:22:16.134Z,41.18
2023-02-11T15:24:43.645Z,40.94
2023-02-11T15:27:15.643Z,40.79
2023-02-11T15:29:45.693Z,41.74
2023-02-11T15:32:15.980Z,51.29
2023-02-11T15:34:44.824Z,41.84
2023-02-11T15:37:24.764Z,41.63
2023-02-11T15:39:53.358Z,42.19
2023-02-11T15:42:22.900Z,41.69
2023-02-11T15:45:14.366Z,42.44
2023-02-11T15:47:47.530Z,42.76
2023-02-11T15:50:37.270Z,42.20
2023-02-11T15:53:23.538Z,42.15
2023-02-11T15:55:53.011Z,42.23
2023-02-11T15:58:21.961Z,43.29
2023-02-11T16:00:52.445Z,43.49
2023-02-11T16:03:24.967Z,43.22
2023-02-11T16:05:52.308Z,43.13
2023-02-11T16:08:29.475Z,43.54
2023-02-11T16:10:58.624Z,43.25
2023-02-11T16:13:28.464Z,43.60
2023-02-11T16:16:05.167Z,43.57
2023-02-11T16:18:52.096Z,43.69
2023-02-11T16:21:33.246Z,43.52
2023-02-11T16:24:00.494Z,43.46
2023-02-11T16:26:41.074Z,44.18
2023-02-11T16:29:13.442Z,44.20
2023-02-11T16:31:44.239Z,44.82
2023-02-11T16:34:25.640Z,45.82
2023-02-11T16:36:53.353Z,46.39
2023-02-11T16:39:24.323Z,45.87
2023-02-11T16:41:52.529Z,46.76
2023-02-11T16:44:19.867Z,47.43
2023-02-11T16:46:46.797Z,48.29
2023-02-11T16:49:24.265Z,48.25
2023-02-11T16:51:54.108Z,48.10
2023-02-11T16:54:21.026Z,49.13
2023-02-11T16:56:48.009Z,49.87
2023-02-11T16:59:15.208Z,48.90
2023-02-11T17:01:44.535Z,49.52
2023-02-11T17:04:19.496Z,48.86
2023-02-11T17:06:48.209Z,48.92
2023-02-11T17:09:26.696Z,49.84
2023-02-11T17:11:55.736Z,51.49
2023-02-11T17:14:22.605Z,51.68
2023-02-11T17:16:49.682Z,51.54
2023-02-11T17:19:21.039Z,52.01
2023-02-11T17:21:50.393Z,53.67
2023-02-11T17:24:18.674Z,53.26
2023-02-11T17:26:46.493Z,51.80
2023-02-11T17:29:17.575Z,53.67
2023-02-11T17:32:03.519Z,53.32
2023-02-11T17:34:30.562Z,53.49
2023-02-11T17:37:16.412Z,54.63
2023-02-11T17:39:44.927Z,53.76
2023-02-11T17:42:12.013Z,55.28
2023-02-11T17:44:38.868Z,54.57
2023-02-11T17:47:05.774Z,54.99
2023-02-11T17:49:32.589Z,54.64
2023-02-11T17:51:59.373Z,55.32
2023-02-11T17:54:26.384Z,56.37
2023-02-11T17:56:55.770Z,56.75
2023-02-11T17:59:25.382Z,57.22
2023-02-11T18:01:52.465Z,57.93
2023-02-11T18:04:20.327Z,57.12
2023-02-11T18:06:47.645Z,58.77
2023-02-11T18:09:14.747Z,58.40
2023-02-11T18:11:42.056Z,59.64
2023-02-11T18:14:10.250Z,58.19
2023-02-11T18:16:39.501Z,57.90
2023-02-11T18:19:08.344Z,57.30
2023-02-11T18:21:36.085Z,57.61
2023-02-11T18:24:06.670Z,57.41
2023-02-11T18:26:33.981Z,58.16
2023-02-11T18:29:00.839Z,57.90
2023-02-11T18:31:28.501Z,58.39
2023-02-11T18:33:55.744Z,59.82
2023-02-11T18:36:23.310Z,59.51
2023-02-11T18:38:51.900Z,58.76
2023-02-11T18:41:18.800Z,59.45
2023-02-11T18:43:46.683Z,59.66
2023-02-11T18:46:15.336Z,60.86
2023-02-11T18:48:42.579Z,60.69
2023-02-11T18:51:16.055Z,60.95
2023-02-11T18:53:43.428Z,59.90
2023-02-11T18:56:16.807Z,60.00
2023-02-11T18:58:43.983Z,59.83
2023-02-11T19:01:16.159Z,58.59
2023-02-11T19:03:44.077Z,58.54
2023-02-11T19:06:25.738Z,58.86
2023-02-11T19:08:59.974Z,61.14
2023-02-11T19:11:54.270Z,60.62
2023-02-11T19:14:31.569Z,60.11
2023-02-11T19:17:00.413Z,60.23
2023-02-11T19:19:30.351Z,59.63
2023-02-11T19:21:59.033Z,60.19
2023-02-11T19:24:27.077Z,60.01
2023-02-11T19:26:57.082Z,59.92
2023-02-11T19:29:24.648Z,60.28
2023-02-11T19:31:51.796Z,59.39
2023-02-11T19:34:22.455Z,59.39
2023-02-11T19:36:50.559Z,59.78
2023-02-11T19:39:18.628Z,60.84
2023-02-11T19:41:45.496Z,61.03
2023-02-11T19:44:13.385Z,61.30
2023-02-11T19:46:42.991Z,61.75
2023-02-11T19:49:11.132Z,63.93
2023-02-11T19:51:39.581Z,63.51
2023-02-11T19:54:07.738Z,63.59
2023-02-11T19:56:34.753Z,63.93
2023-02-11T19:59:04.612Z,63.63
2023-02-11T20:01:31.472Z,63.82
2023-02-11T20:03:59.683Z,62.89
2023-02-11T20:06:29.997Z,63.23
2023-02-11T20:09:08.513Z,64.14
2023-02-11T20:11:36.683Z,64.88
2023-02-11T20:14:04.909Z,63.94
2023-02-11T20:16:46.920Z,62.76
2023-02-11T20:19:18.344Z,62.92
2023-02-11T20:21:47.493Z,62.30
2023-02-11T20:24:16.326Z,64.32
2023-02-11T20:26:43.361Z,64.79
2023-02-11T20:29:10.256Z,64.05
2023-02-11T20:31:37.708Z,64.09
2023-02-11T20:34:04.925Z,64.20
2023-02-11T20:36:35.777Z,64.29
2023-02-11T20:39:05.154Z,64.51
2023-02-11T20:41:39.356Z,64.88
2023-02-11T20:44:08.237Z,64.60
2023-02-11T20:46:37.022Z,64.72
2023-02-11T20:49:03.864Z,64.75
2023-02-11T20:51:32.254Z,64.11
2023-02-11T20:53:59.703Z,64.75
2023-02-11T20:56:35.984Z,64.71
2023-02-11T20:59:04.435Z,63.23
2023-02-11T21:01:37.379Z,63.01
2023-02-11T21:04:16.940Z,62.33
2023-02-11T21:06:47.497Z,62.83
2023-02-11T21:09:17.637Z,63.01
2023-02-11T21:11:44.513Z,63.09
2023-02-11T21:14:12.597Z,64.61
2023-02-11T21:16:40.310Z,64.45
2023-02-11T21:19:07.885Z,64.39
2023-02-11T21:21:36.156Z,64.28
2023-02-11T21:24:03.396Z,65.49
2023-02-11T21:26:30.427Z,63.93
2023-02-11T21:28:57.358Z,64.28
2023-02-11T21:31:30.539Z,65.15
2023-02-11T21:33:59.692Z,64.47
2023-02-11T21:36:28.222Z,64.38
2023-02-11T21:38:55.195Z,65.76
2023-02-11T21:41:22.835Z,63.34
2023-02-11T21:43:50.047Z,64.26
2023-02-11T21:46:18.655Z,62.81
2023-02-11T21:48:45.875Z,63.44
2023-02-11T21:51:21.758Z,63.51
2023-02-11T21:53:53.355Z,64.22
2023-02-11T21:56:20.342Z,63.65
2023-02-11T21:58:47.684Z,64.64
2023-02-11T22:01:21.049Z,63.80
2023-02-11T22:03:48.201Z,64.06
2023-02-11T22:06:18.346Z,63.58
2023-02-11T22:08:45.259Z,64.07
2023-02-11T22:11:13.677Z,63.52
2023-02-11T22:13:41.815Z,63.95
2023-02-11T22:16:11.335Z,63.55
2023-02-11T22:18:39.324Z,64.02
2023-02-11T22:21:09.979Z,63.91
2023-02-11T22:23:38.038Z,64.58
2023-02-11T22:26:15.014Z,62.93
2023-02-11T22:28:42.153Z,63.42
2023-02-11T22:31:18.102Z,64.02
2023-02-11T22:33:45.341Z,62.75
2023-02-11T22:36:38.693Z,62.45
2023-02-11T22:39:15.285Z,61.85
2023-02-11T22:41:43.663Z,62.51
2023-02-11T22:44:11.077Z,63.63
2023-02-11T22:46:39.032Z,63.71
2023-02-11T22:49:07.497Z,64.18
2023-02-11T22:51:34.422Z,63.13
2023-02-11T22:54:05.012Z,63.68
2023-02-11T22:56:33.554Z,63.60
2023-02-11T22:59:04.323Z,64.59
2023-02-11T23:01:32.041Z,63.67
2023-02-11T23:04:04.376Z,62.21
2023-02-11T23:06:31.660Z,61.57
2023-02-11T23:08:59.011Z,62.51
2023-02-11T23:11:28.717Z,62.97
2023-02-11T23:13:55.918Z,62.76
2023-02-11T23:16:25.841Z,61.77
2023-02-11T23:19:12.431Z,61.63
2023-02-11T23:21:39.885Z,62.37
2023-02-11T23:24:14.865Z,62.82
2023-02-11T23:26:43.317Z,62.41
2023-02-11T23:29:10.892Z,61.61
2023-02-11T23:31:40.502Z,61.20
2023-02-11T23:34:08.620Z,61.75
2023-02-11T23:36:35.564Z,61.34
2023-02-11T23:39:02.846Z,59.07
2023-02-11T23:41:29.913Z,57.71
2023-02-11T23:43:58.076Z,56.82
2023-02-11T23:46:29.336Z,55.85
2023-02-11T23:49:15.688Z,56.05
2023-02-11T23:51:42.603Z,56.59
2023-02-11T23:54:13.987Z,55.37
2023-02-11T23:56:42.781Z,55.71
2023-02-11T23:59:10.123Z,55.42
